sensor_id;sensor_type;location;lat;lon;timestamp;temperature;humidity
3208;DHT22;1616;52.394;9.756;2023-02-28T00:00:39;1.40;1.00
3208;DHT22;1616;52.394;9.756;2023-02-28T00:03:05;1.30;1.00
3208;DHT22;1616;52.394;9.756;2023-02-28T00:05:31;1.30;1.00
3208;DHT22;1616;52.394;9.756;2023-02-28T00:07:57;1.20;1.00
3208;DHT22;1616;52.394;9.756;2023-02-28T00:10:28;1.20;1.00
3208;DHT22;1616;52.394;9.756;2023-02-28T00:12:56;1.10;1.00
3208;DHT22;1616;52.394;9.756;2023-02-28T00:15:23;1.10;1.00
3208;DHT22;1616;52.394;9.756;2023-02-28T00:17:49;1.10;1.00
3208;DHT22;1616;52.394;9.756;2023-02-28T00:20:15;1.10;1.00
3208;DHT22;1616;52.394;9.756;2023-02-28T00:22:43;1.10;1.00
3208;DHT22;1616;52.394;9.756;2023-02-28T00:25:10;1.10;1.00
3208;DHT22;1616;52.394;9.756;2023-02-28T00:27:38;1.10;1.00
3208;DHT22;1616;52.394;9.756;2023-02-28T00:30:07;1.10;1.00
3208;DHT22;1616;52.394;9.756;2023-02-28T00:32:33;1.10;1.00
3208;DHT22;1616;52.394;9.756;2023-02-28T00:35:00;1.10;1.00
3208;DHT22;1616;52.394;9.756;2023-02-28T00:37:26;1.00;1.00
3208;DHT22;1616;52.394;9.756;2023-02-28T00:39:52;1.00;1.00
3208;DHT22;1616;52.394;9.756;2023-02-28T00:42:18;1.00;1.00
3208;DHT22;1616;52.394;9.756;2023-02-28T00:44:44;1.00;1.00
3208;DHT22;1616;52.394;9.756;2023-02-28T00:47:09;1.10;1.00
3208;DHT22;1616;52.394;9.756;2023-02-28T00:49:35;1.10;1.00
3208;DHT22;1616;52.394;9.756;2023-02-28T00:52:01;1.10;1.00
3208;DHT22;1616;52.394;9.756;2023-02-28T00:54:27;1.00;1.00
3208;DHT22;1616;52.394;9.756;2023-02-28T00:56:52;1.00;1.00
3208;DHT22;1616;52.394;9.756;2023-02-28T00:59:18;1.00;1.00
3208;DHT22;1616;52.394;9.756;2023-02-28T01:01:45;1.00;1.00
3208;DHT22;1616;52.394;9.756;2023-02-28T01:04:11;0.90;1.00
3208;DHT22;1616;52.394;9.756;2023-02-28T01:06:37;0.90;1.00
3208;DHT22;1616;52.394;9.756;2023-02-28T01:09:05;0.90;1.00
3208;DHT22;1616;52.394;9.756;2023-02-28T01:11:30;0.90;1.00
3208;DHT22;1616;52.394;9.756;2023-02-28T01:13:56;0.90;1.00
3208;DHT22;1616;52.394;9.756;2023-02-28T01:16:22;0.90;1.00
3208;DHT22;1616;52.394;9.756;2023-02-28T01:18:48;0.80;1.00
3208;DHT22;1616;52.394;9.756;2023-02-28T01:21:16;0.70;1.00
3208;DHT22;1616;52.394;9.756;2023-02-28T01:23:42;0.70;1.00
3208;DHT22;1616;52.394;9.756;2023-02-28T01:26:10;0.50;1.00
3208;DHT22;1616;52.394;9.756;2023-02-28T01:28:36;0.40;1.00
3208;DHT22;1616;52.394;9.756;2023-02-28T01:31:02;0.40;1.00
3208;DHT22;1616;52.394;9.756;2023-02-28T01:33:28;0.30;1.00
3208;DHT22;1616;52.394;9.756;2023-02-28T01:36:17;0.20;1.00
3208;DHT22;1616;52.394;9.756;2023-02-28T01:38:44;0.10;1.00
3208;DHT22;1616;52.394;9.756;2023-02-28T01:41:16;0.00;1.00
3208;DHT22;1616;52.394;9.756;2023-02-28T01:46:11;-0.20;1.00
3208;DHT22;1616;52.394;9.756;2023-02-28T01:48:41;-0.20;1.00
3208;DHT22;1616;52.394;9.756;2023-02-28T01:51:41;-0.20;1.00
3208;DHT22;1616;52.394;9.756;2023-02-28T01:54:14;-0.30;1.00
3208;DHT22;1616;52.394;9.756;2023-02-28T01:56:52;-0.30;1.00
3208;DHT22;1616;52.394;9.756;2023-02-28T01:59:28;-0.40;1.00
3208;DHT22;1616;52.394;9.756;2023-02-28T02:01:55;-0.40;1.00
3208;DHT22;1616;52.394;9.756;2023-02-28T02:04:23;-0.30;1.00
3208;DHT22;1616;52.394;9.756;2023-02-28T02:06:52;-0.30;1.00
3208;DHT22;1616;52.394;9.756;2023-02-28T02:09:17;-0.20;1.00
3208;DHT22;1616;52.394;9.756;2023-02-28T02:11:44;-0.20;1.00
3208;DHT22;1616;52.394;9.756;2023-02-28T02:14:35;-0.20;1.00
3208;DHT22;1616;52.394;9.756;2023-02-28T02:17:22;-0.20;1.00
3208;DHT22;1616;52.394;9.756;2023-02-28T02:25:44;-0.10;1.00
3208;DHT22;1616;52.394;9.756;2023-02-28T02:36:56;-0.20;1.00
3208;DHT22;1616;52.394;9.756;2023-02-28T02:42:19;-0.20;1.00
3208;DHT22;1616;52.394;9.756;2023-02-28T02:44:56;-0.30;1.00
3208;DHT22;1616;52.394;9.756;2023-02-28T02:47:24;-0.20;1.00
3208;DHT22;1616;52.394;9.756;2023-02-28T02:49:55;-0.30;1.00
3208;DHT22;1616;52.394;9.756;2023-02-28T02:52:24;-0.30;1.00
3208;DHT22;1616;52.394;9.756;2023-02-28T02:54:55;-0.40;1.00
3208;DHT22;1616;52.394;9.756;2023-02-28T02:57:33;-0.40;1.00
3208;DHT22;1616;52.394;9.756;2023-02-28T03:00:02;-0.40;1.00
3208;DHT22;1616;52.394;9.756;2023-02-28T03:02:31;-0.50;1.00
3208;DHT22;1616;52.394;9.756;2023-02-28T03:05:03;-0.40;1.00
3208;DHT22;1616;52.394;9.756;2023-02-28T03:07:30;-0.40;1.00
3208;DHT22;1616;52.394;9.756;2023-02-28T03:09:56;-0.40;1.00
3208;DHT22;1616;52.394;9.756;2023-02-28T03:21:13;-0.50;1.00
3208;DHT22;1616;52.394;9.756;2023-02-28T03:23:52;-0.50;1.00
3208;DHT22;1616;52.394;9.756;2023-02-28T03:26:23;-0.60;1.00
3208;DHT22;1616;52.394;9.756;2023-02-28T03:29:06;-0.60;1.00
3208;DHT22;1616;52.394;9.756;2023-02-28T03:31:50;-0.60;1.00
3208;DHT22;1616;52.394;9.756;2023-02-28T03:34:39;-0.60;1.00
3208;DHT22;1616;52.394;9.756;2023-02-28T03:37:16;-0.70;1.00
3208;DHT22;1616;52.394;9.756;2023-02-28T03:39:49;-0.70;1.00
3208;DHT22;1616;52.394;9.756;2023-02-28T03:42:22;-0.70;1.00
3208;DHT22;1616;52.394;9.756;2023-02-28T03:45:00;-0.70;1.00
3208;DHT22;1616;52.394;9.756;2023-02-28T03:47:41;-0.80;1.00
3208;DHT22;1616;52.394;9.756;2023-02-28T03:50:35;-0.90;1.00
3208;DHT22;1616;52.394;9.756;2023-02-28T03:53:14;-0.90;1.00
3208;DHT22;1616;52.394;9.756;2023-02-28T03:55:44;-1.00;1.00
3208;DHT22;1616;52.394;9.756;2023-02-28T03:58:42;-1.00;1.00
3208;DHT22;1616;52.394;9.756;2023-02-28T04:01:13;-1.00;1.00
3208;DHT22;1616;52.394;9.756;2023-02-28T04:03:40;-1.00;1.00
3208;DHT22;1616;52.394;9.756;2023-02-28T04:06:15;-1.10;1.00
3208;DHT22;1616;52.394;9.756;2023-02-28T04:08:42;-1.10;1.00
3208;DHT22;1616;52.394;9.756;2023-02-28T04:11:18;-1.10;1.00
3208;DHT22;1616;52.394;9.756;2023-02-28T04:13:45;-1.20;1.00
3208;DHT22;1616;52.394;9.756;2023-02-28T04:16:11;-1.20;1.00
3208;DHT22;1616;52.394;9.756;2023-02-28T04:18:40;-1.10;1.00
3208;DHT22;1616;52.394;9.756;2023-02-28T04:21:06;-1.20;1.00
3208;DHT22;1616;52.394;9.756;2023-02-28T04:23:33;-1.20;1.00
3208;DHT22;1616;52.394;9.756;2023-02-28T04:25:58;-1.20;1.00
3208;DHT22;1616;52.394;9.756;2023-02-28T04:28:24;-1.20;1.00
3208;DHT22;1616;52.394;9.756;2023-02-28T04:30:57;-1.20;1.00
3208;DHT22;1616;52.394;9.756;2023-02-28T04:33:24;-1.20;1.00
3208;DHT22;1616;52.394;9.756;2023-02-28T04:36:10;-1.20;1.00
3208;DHT22;1616;52.394;9.756;2023-02-28T04:38:37;-1.10;1.00
3208;DHT22;1616;52.394;9.756;2023-02-28T04:41:03;-1.20;1.00
3208;DHT22;1616;52.394;9.756;2023-02-28T04:43:30;-1.20;1.00
3208;DHT22;1616;52.394;9.756;2023-02-28T04:45:58;-1.10;1.00
3208;DHT22;1616;52.394;9.756;2023-02-28T04:48:28;-1.10;1.00
3208;DHT22;1616;52.394;9.756;2023-02-28T04:50:55;-1.10;1.00
3208;DHT22;1616;52.394;9.756;2023-02-28T04:53:24;-1.10;1.00
3208;DHT22;1616;52.394;9.756;2023-02-28T04:55:50;-1.10;1.00
3208;DHT22;1616;52.394;9.756;2023-02-28T04:58:15;-1.10;1.00
3208;DHT22;1616;52.394;9.756;2023-02-28T05:00:41;-1.10;1.00
3208;DHT22;1616;52.394;9.756;2023-02-28T05:03:07;-1.10;1.00
3208;DHT22;1616;52.394;9.756;2023-02-28T05:05:34;-1.10;1.00
3208;DHT22;1616;52.394;9.756;2023-02-28T05:07:59;-1.10;1.00
3208;DHT22;1616;52.394;9.756;2023-02-28T05:10:25;-1.10;1.00
3208;DHT22;1616;52.394;9.756;2023-02-28T05:12:51;-1.10;1.00
3208;DHT22;1616;52.394;9.756;2023-02-28T05:15:17;-1.10;1.00
3208;DHT22;1616;52.394;9.756;2023-02-28T05:17:43;-1.10;1.00
3208;DHT22;1616;52.394;9.756;2023-02-28T05:20:09;-1.20;1.00
3208;DHT22;1616;52.394;9.756;2023-02-28T05:22:37;-1.20;1.00
3208;DHT22;1616;52.394;9.756;2023-02-28T05:25:03;-1.20;1.00
3208;DHT22;1616;52.394;9.756;2023-02-28T05:27:30;-1.20;1.00
3208;DHT22;1616;52.394;9.756;2023-02-28T05:29:56;-1.30;1.00
3208;DHT22;1616;52.394;9.756;2023-02-28T05:32:21;-1.30;1.00
3208;DHT22;1616;52.394;9.756;2023-02-28T05:34:47;-1.30;1.00
3208;DHT22;1616;52.394;9.756;2023-02-28T05:37:14;-1.40;1.00
3208;DHT22;1616;52.394;9.756;2023-02-28T05:39:42;-1.30;1.00
3208;DHT22;1616;52.394;9.756;2023-02-28T05:42:08;-1.30;1.00
3208;DHT22;1616;52.394;9.756;2023-02-28T05:44:35;-1.30;1.00
3208;DHT22;1616;52.394;9.756;2023-02-28T05:47:01;-1.40;1.00
3208;DHT22;1616;52.394;9.756;2023-02-28T05:49:27;-1.50;1.00
3208;DHT22;1616;52.394;9.756;2023-02-28T05:51:52;-1.50;1.00
3208;DHT22;1616;52.394;9.756;2023-02-28T05:54:18;-1.50;1.00
3208;DHT22;1616;52.394;9.756;2023-02-28T05:56:43;-1.60;1.00
3208;DHT22;1616;52.394;9.756;2023-02-28T05:59:12;-1.60;1.00
3208;DHT22;1616;52.394;9.756;2023-02-28T06:01:43;-1.60;1.00
3208;DHT22;1616;52.394;9.756;2023-02-28T06:04:14;-1.60;1.00
3208;DHT22;1616;52.394;9.756;2023-02-28T06:06:44;-1.60;1.00
3208;DHT22;1616;52.394;9.756;2023-02-28T06:09:10;-1.60;1.00
3208;DHT22;1616;52.394;9.756;2023-02-28T06:11:36;-1.60;1.00
3208;DHT22;1616;52.394;9.756;2023-02-28T06:14:03;-1.60;1.00
3208;DHT22;1616;52.394;9.756;2023-02-28T06:16:30;-1.60;1.00
3208;DHT22;1616;52.394;9.756;2023-02-28T06:19:01;-1.60;1.00
3208;DHT22;1616;52.394;9.756;2023-02-28T06:21:28;-1.60;1.00
3208;DHT22;1616;52.394;9.756;2023-02-28T06:23:54;-1.60;1.00
3208;DHT22;1616;52.394;9.756;2023-02-28T06:26:21;-1.50;1.00
3208;DHT22;1616;52.394;9.756;2023-02-28T06:28:46;-1.50;1.00
3208;DHT22;1616;52.394;9.756;2023-02-28T06:31:14;-1.50;1.00
3208;DHT22;1616;52.394;9.756;2023-02-28T06:33:41;-1.40;1.00
3208;DHT22;1616;52.394;9.756;2023-02-28T06:36:09;-1.40;1.00
3208;DHT22;1616;52.394;9.756;2023-02-28T06:38:35;-1.30;1.00
3208;DHT22;1616;52.394;9.756;2023-02-28T06:41:02;-1.30;1.00
3208;DHT22;1616;52.394;9.756;2023-02-28T06:43:29;-1.30;1.00
3208;DHT22;1616;52.394;9.756;2023-02-28T06:45:58;-1.20;1.00
3208;DHT22;1616;52.394;9.756;2023-02-28T06:48:25;-1.10;1.00
3208;DHT22;1616;52.394;9.756;2023-02-28T06:50:52;-1.00;1.00
3208;DHT22;1616;52.394;9.756;2023-02-28T06:53:18;-0.90;1.00
3208;DHT22;1616;52.394;9.756;2023-02-28T06:55:43;-1.00;1.00
3208;DHT22;1616;52.394;9.756;2023-02-28T06:58:09;-0.70;1.00
3208;DHT22;1616;52.394;9.756;2023-02-28T07:00:42;-0.30;1.00
3208;DHT22;1616;52.394;9.756;2023-02-28T07:03:08;0.50;1.00
3208;DHT22;1616;52.394;9.756;2023-02-28T07:05:38;1.60;1.00
3208;DHT22;1616;52.394;9.756;2023-02-28T07:08:05;2.70;1.00
3208;DHT22;1616;52.394;9.756;2023-02-28T07:10:32;3.90;1.00
3208;DHT22;1616;52.394;9.756;2023-02-28T07:12:59;5.00;1.00
3208;DHT22;1616;52.394;9.756;2023-02-28T07:15:24;5.90;1.00
3208;DHT22;1616;52.394;9.756;2023-02-28T07:17:50;6.70;1.00
3208;DHT22;1616;52.394;9.756;2023-02-28T07:20:16;7.50;1.00
3208;DHT22;1616;52.394;9.756;2023-02-28T07:22:42;8.10;1.00
3208;DHT22;1616;52.394;9.756;2023-02-28T07:25:08;8.60;1.00
3208;DHT22;1616;52.394;9.756;2023-02-28T07:27:34;9.20;1.00
3208;DHT22;1616;52.394;9.756;2023-02-28T07:29:59;9.80;1.00
3208;DHT22;1616;52.394;9.756;2023-02-28T07:32:27;10.30;1.00
3208;DHT22;1616;52.394;9.756;2023-02-28T07:34:53;10.80;1.00
3208;DHT22;1616;52.394;9.756;2023-02-28T07:37:19;11.30;1.00
3208;DHT22;1616;52.394;9.756;2023-02-28T07:39:45;11.80;1.00
3208;DHT22;1616;52.394;9.756;2023-02-28T07:42:11;12.20;1.00
3208;DHT22;1616;52.394;9.756;2023-02-28T07:44:39;12.50;1.00
3208;DHT22;1616;52.394;9.756;2023-02-28T07:47:10;12.90;1.00
3208;DHT22;1616;52.394;9.756;2023-02-28T07:49:36;13.30;1.00
3208;DHT22;1616;52.394;9.756;2023-02-28T07:52:03;13.60;1.00
3208;DHT22;1616;52.394;9.756;2023-02-28T07:54:29;13.80;1.00
3208;DHT22;1616;52.394;9.756;2023-02-28T07:56:55;14.00;1.00
3208;DHT22;1616;52.394;9.756;2023-02-28T07:59:21;14.20;1.00
3208;DHT22;1616;52.394;9.756;2023-02-28T08:01:46;14.50;1.00
3208;DHT22;1616;52.394;9.756;2023-02-28T08:04:15;14.60;1.00
3208;DHT22;1616;52.394;9.756;2023-02-28T08:06:40;14.90;1.00
3208;DHT22;1616;52.394;9.756;2023-02-28T08:09:06;15.10;1.00
3208;DHT22;1616;52.394;9.756;2023-02-28T08:11:32;15.30;1.00
3208;DHT22;1616;52.394;9.756;2023-02-28T08:13:57;15.40;1.00
3208;DHT22;1616;52.394;9.756;2023-02-28T08:16:23;15.60;1.00
3208;DHT22;1616;52.394;9.756;2023-02-28T08:18:51;16.00;1.00
3208;DHT22;1616;52.394;9.756;2023-02-28T08:21:18;16.20;1.00
3208;DHT22;1616;52.394;9.756;2023-02-28T08:23:49;16.40;1.00
3208;DHT22;1616;52.394;9.756;2023-02-28T08:26:16;16.60;1.00
3208;DHT22;1616;52.394;9.756;2023-02-28T08:28:42;16.70;1.00
3208;DHT22;1616;52.394;9.756;2023-02-28T08:31:13;16.90;1.00
3208;DHT22;1616;52.394;9.756;2023-02-28T08:33:40;17.00;1.00
3208;DHT22;1616;52.394;9.756;2023-02-28T08:36:07;17.10;1.00
3208;DHT22;1616;52.394;9.756;2023-02-28T08:38:33;17.30;1.00
3208;DHT22;1616;52.394;9.756;2023-02-28T08:41:01;17.40;1.00
3208;DHT22;1616;52.394;9.756;2023-02-28T08:43:28;17.70;1.00
3208;DHT22;1616;52.394;9.756;2023-02-28T08:45:55;17.90;1.00
3208;DHT22;1616;52.394;9.756;2023-02-28T08:48:25;18.00;1.00
3208;DHT22;1616;52.394;9.756;2023-02-28T08:51:01;18.20;1.00
3208;DHT22;1616;52.394;9.756;2023-02-28T08:53:29;18.40;1.00
3208;DHT22;1616;52.394;9.756;2023-02-28T08:55:59;18.60;1.00
3208;DHT22;1616;52.394;9.756;2023-02-28T08:58:25;18.80;1.00
3208;DHT22;1616;52.394;9.756;2023-02-28T09:00:51;18.90;1.00
3208;DHT22;1616;52.394;9.756;2023-02-28T09:03:17;18.90;1.00
3208;DHT22;1616;52.394;9.756;2023-02-28T09:05:56;19.00;1.00
3208;DHT22;1616;52.394;9.756;2023-02-28T09:08:23;18.90;1.00
3208;DHT22;1616;52.394;9.756;2023-02-28T09:10:49;19.00;1.00
3208;DHT22;1616;52.394;9.756;2023-02-28T09:13:15;19.10;1.00
3208;DHT22;1616;52.394;9.756;2023-02-28T09:15:41;19.20;1.00
3208;DHT22;1616;52.394;9.756;2023-02-28T09:18:07;19.20;1.00
3208;DHT22;1616;52.394;9.756;2023-02-28T09:20:32;19.10;1.00
3208;DHT22;1616;52.394;9.756;2023-02-28T09:22:58;19.00;1.00
3208;DHT22;1616;52.394;9.756;2023-02-28T09:25:24;18.90;1.00
3208;DHT22;1616;52.394;9.756;2023-02-28T09:27:50;18.90;1.00
3208;DHT22;1616;52.394;9.756;2023-02-28T09:30:16;19.00;1.00
3208;DHT22;1616;52.394;9.756;2023-02-28T09:32:42;19.20;1.00
3208;DHT22;1616;52.394;9.756;2023-02-28T09:35:08;19.30;1.00
3208;DHT22;1616;52.394;9.756;2023-02-28T09:37:38;19.40;1.00
3208;DHT22;1616;52.394;9.756;2023-02-28T09:40:05;19.60;1.00
3208;DHT22;1616;52.394;9.756;2023-02-28T09:42:33;19.60;1.00
3208;DHT22;1616;52.394;9.756;2023-02-28T09:45:00;19.40;1.00
3208;DHT22;1616;52.394;9.756;2023-02-28T09:47:33;19.50;1.00
3208;DHT22;1616;52.394;9.756;2023-02-28T09:50:12;19.50;1.00
3208;DHT22;1616;52.394;9.756;2023-02-28T09:52:40;19.60;1.00
3208;DHT22;1616;52.394;9.756;2023-02-28T09:55:43;19.70;1.00
3208;DHT22;1616;52.394;9.756;2023-02-28T09:58:23;19.90;1.00
3208;DHT22;1616;52.394;9.756;2023-02-28T10:00:59;20.00;1.00
3208;DHT22;1616;52.394;9.756;2023-02-28T10:03:39;20.00;1.00
3208;DHT22;1616;52.394;9.756;2023-02-28T10:06:19;20.00;1.00
3208;DHT22;1616;52.394;9.756;2023-02-28T10:09:03;20.00;1.00
3208;DHT22;1616;52.394;9.756;2023-02-28T10:11:32;20.00;1.00
3208;DHT22;1616;52.394;9.756;2023-02-28T10:16:44;19.80;1.00
3208;DHT22;1616;52.394;9.756;2023-02-28T10:19:18;19.90;1.00
3208;DHT22;1616;52.394;9.756;2023-02-28T10:21:50;19.80;1.00
3208;DHT22;1616;52.394;9.756;2023-02-28T10:27:18;19.50;1.00
3208;DHT22;1616;52.394;9.756;2023-02-28T10:29:46;19.50;1.00
3208;DHT22;1616;52.394;9.756;2023-02-28T10:32:17;19.60;1.00
3208;DHT22;1616;52.394;9.756;2023-02-28T10:34:44;19.90;1.00
3208;DHT22;1616;52.394;9.756;2023-02-28T10:37:11;20.10;1.00
3208;DHT22;1616;52.394;9.756;2023-02-28T10:39:44;20.20;1.00
3208;DHT22;1616;52.394;9.756;2023-02-28T10:42:37;20.10;1.00
3208;DHT22;1616;52.394;9.756;2023-02-28T10:47:34;19.90;1.00
3208;DHT22;1616;52.394;9.756;2023-02-28T10:50:02;19.90;1.00
3208;DHT22;1616;52.394;9.756;2023-02-28T10:52:37;20.00;1.00
3208;DHT22;1616;52.394;9.756;2023-02-28T10:57:48;20.40;1.00
3208;DHT22;1616;52.394;9.756;2023-02-28T11:00:19;20.30;1.00
3208;DHT22;1616;52.394;9.756;2023-02-28T11:02:47;20.20;1.00
3208;DHT22;1616;52.394;9.756;2023-02-28T11:05:35;20.00;1.00
3208;DHT22;1616;52.394;9.756;2023-02-28T11:08:14;19.90;1.00
3208;DHT22;1616;52.394;9.756;2023-02-28T11:10:46;20.00;1.00
3208;DHT22;1616;52.394;9.756;2023-02-28T11:13:21;20.00;1.00
3208;DHT22;1616;52.394;9.756;2023-02-28T11:15:58;19.80;1.00
3208;DHT22;1616;52.394;9.756;2023-02-28T11:18:47;19.70;1.00
3208;DHT22;1616;52.394;9.756;2023-02-28T11:21:32;19.90;1.00
3208;DHT22;1616;52.394;9.756;2023-02-28T11:24:22;20.00;1.00
3208;DHT22;1616;52.394;9.756;2023-02-28T11:26:49;20.10;1.00
3208;DHT22;1616;52.394;9.756;2023-02-28T11:29:21;20.20;1.00
3208;DHT22;1616;52.394;9.756;2023-02-28T11:34:35;21.00;1.00
3208;DHT22;1616;52.394;9.756;2023-02-28T11:37:02;21.20;1.00
3208;DHT22;1616;52.394;9.756;2023-02-28T11:39:34;21.40;1.00
3208;DHT22;1616;52.394;9.756;2023-02-28T11:45:22;21.50;1.00
3208;DHT22;1616;52.394;9.756;2023-02-28T11:48:01;21.40;1.00
3208;DHT22;1616;52.394;9.756;2023-02-28T11:50:37;21.20;1.00
3208;DHT22;1616;52.394;9.756;2023-02-28T11:55:49;20.40;1.00
3208;DHT22;1616;52.394;9.756;2023-02-28T12:04:34;19.10;1.00
3208;DHT22;1616;52.394;9.756;2023-02-28T12:12:57;19.50;1.00
3208;DHT22;1616;52.394;9.756;2023-02-28T12:15:40;19.70;1.00
3208;DHT22;1616;52.394;9.756;2023-02-28T12:21:14;19.60;1.00
3208;DHT22;1616;52.394;9.756;2023-02-28T12:26:45;18.80;1.00
3208;DHT22;1616;52.394;9.756;2023-02-28T12:29:28;18.60;1.00
3208;DHT22;1616;52.394;9.756;2023-02-28T12:32:14;18.10;1.00
3208;DHT22;1616;52.394;9.756;2023-02-28T12:34:46;18.00;1.00
3208;DHT22;1616;52.394;9.756;2023-02-28T12:37:36;17.70;1.00
3208;DHT22;1616;52.394;9.756;2023-02-28T12:40:15;17.10;1.00
3208;DHT22;1616;52.394;9.756;2023-02-28T12:42:46;16.40;1.00
3208;DHT22;1616;52.394;9.756;2023-02-28T12:45:20;15.60;1.00
3208;DHT22;1616;52.394;9.756;2023-02-28T12:47:51;15.00;1.00
3208;DHT22;1616;52.394;9.756;2023-02-28T12:50:18;15.00;1.00
3208;DHT22;1616;52.394;9.756;2023-02-28T12:55:35;15.00;1.00
3208;DHT22;1616;52.394;9.756;2023-02-28T12:58:20;15.00;1.00
3208;DHT22;1616;52.394;9.756;2023-02-28T13:09:17;14.50;1.00
3208;DHT22;1616;52.394;9.756;2023-02-28T13:11:51;14.20;1.00
3208;DHT22;1616;52.394;9.756;2023-02-28T13:14:30;14.00;1.00
3208;DHT22;1616;52.394;9.756;2023-02-28T13:19:39;13.10;1.00
3208;DHT22;1616;52.394;9.756;2023-02-28T13:22:16;12.70;1.00
3208;DHT22;1616;52.394;9.756;2023-02-28T13:24:48;12.20;1.00
3208;DHT22;1616;52.394;9.756;2023-02-28T13:29:41;11.50;1.00
3208;DHT22;1616;52.394;9.756;2023-02-28T13:39:59;9.90;1.00
3208;DHT22;1616;52.394;9.756;2023-02-28T13:47:42;9.10;1.00
3208;DHT22;1616;52.394;9.756;2023-02-28T13:58:53;8.10;1.00
3208;DHT22;1616;52.394;9.756;2023-02-28T14:01:26;8.10;1.00
3208;DHT22;1616;52.394;9.756;2023-02-28T14:04:00;7.90;1.00
3208;DHT22;1616;52.394;9.756;2023-02-28T14:06:30;7.80;1.00
3208;DHT22;1616;52.394;9.756;2023-02-28T14:11:40;7.60;1.00
3208;DHT22;1616;52.394;9.756;2023-02-28T14:14:08;7.50;1.00
3208;DHT22;1616;52.394;9.756;2023-02-28T14:16:48;7.40;1.00
3208;DHT22;1616;52.394;9.756;2023-02-28T14:19:30;7.20;1.00
3208;DHT22;1616;52.394;9.756;2023-02-28T14:22:21;7.20;1.00
3208;DHT22;1616;52.394;9.756;2023-02-28T14:25:16;7.10;1.00
3208;DHT22;1616;52.394;9.756;2023-02-28T14:28:03;7.10;1.00
3208;DHT22;1616;52.394;9.756;2023-02-28T14:30:53;7.10;1.00
3208;DHT22;1616;52.394;9.756;2023-02-28T14:36:23;7.00;1.00
3208;DHT22;1616;52.394;9.756;2023-02-28T14:38:56;7.10;1.00
3208;DHT22;1616;52.394;9.756;2023-02-28T14:41:37;7.00;1.00
3208;DHT22;1616;52.394;9.756;2023-02-28T14:44:22;7.10;1.00
3208;DHT22;1616;52.394;9.756;2023-02-28T14:46:57;7.10;1.00
3208;DHT22;1616;52.394;9.756;2023-02-28T14:49:32;7.10;1.00
3208;DHT22;1616;52.394;9.756;2023-02-28T14:54:36;7.10;1.00
3208;DHT22;1616;52.394;9.756;2023-02-28T14:57:03;7.00;1.00
3208;DHT22;1616;52.394;9.756;2023-02-28T14:59:31;7.10;1.00
3208;DHT22;1616;52.394;9.756;2023-02-28T15:04:42;7.00;1.00
3208;DHT22;1616;52.394;9.756;2023-02-28T15:07:09;7.00;1.00
3208;DHT22;1616;52.394;9.756;2023-02-28T15:09:35;6.90;1.00
3208;DHT22;1616;52.394;9.756;2023-02-28T15:12:01;6.90;1.00
3208;DHT22;1616;52.394;9.756;2023-02-28T15:14:27;6.90;1.00
3208;DHT22;1616;52.394;9.756;2023-02-28T15:16:59;6.80;1.00
3208;DHT22;1616;52.394;9.756;2023-02-28T15:19:32;6.80;1.00
3208;DHT22;1616;52.394;9.756;2023-02-28T15:22:16;6.70;1.00
3208;DHT22;1616;52.394;9.756;2023-02-28T15:24:47;6.70;1.00
3208;DHT22;1616;52.394;9.756;2023-02-28T15:27:28;6.70;1.00
3208;DHT22;1616;52.394;9.756;2023-02-28T15:29:58;6.60;1.00
3208;DHT22;1616;52.394;9.756;2023-02-28T15:32:26;6.60;1.00
3208;DHT22;1616;52.394;9.756;2023-02-28T15:34:52;6.60;1.00
3208;DHT22;1616;52.394;9.756;2023-02-28T15:37:56;6.50;1.00
3208;DHT22;1616;52.394;9.756;2023-02-28T15:40:43;6.50;1.00
3208;DHT22;1616;52.394;9.756;2023-02-28T15:43:16;6.50;1.00
3208;DHT22;1616;52.394;9.756;2023-02-28T15:45:50;6.40;1.00
3208;DHT22;1616;52.394;9.756;2023-02-28T15:48:31;6.50;1.00
3208;DHT22;1616;52.394;9.756;2023-02-28T15:51:18;6.40;1.00
3208;DHT22;1616;52.394;9.756;2023-02-28T15:56:22;6.30;1.00
3208;DHT22;1616;52.394;9.756;2023-02-28T15:58:48;6.20;1.00
3208;DHT22;1616;52.394;9.756;2023-02-28T16:01:29;6.20;1.00
3208;DHT22;1616;52.394;9.756;2023-02-28T16:03:59;6.10;1.00
3208;DHT22;1616;52.394;9.756;2023-02-28T16:06:41;6.10;1.00
3208;DHT22;1616;52.394;9.756;2023-02-28T16:09:13;6.10;1.00
3208;DHT22;1616;52.394;9.756;2023-02-28T16:11:48;6.00;1.00
3208;DHT22;1616;52.394;9.756;2023-02-28T16:14:22;6.00;1.00
3208;DHT22;1616;52.394;9.756;2023-02-28T16:16:51;5.90;1.00
3208;DHT22;1616;52.394;9.756;2023-02-28T16:19:18;5.90;1.00
3208;DHT22;1616;52.394;9.756;2023-02-28T16:21:45;5.90;1.00
3208;DHT22;1616;52.394;9.756;2023-02-28T16:24:10;5.80;1.00
3208;DHT22;1616;52.394;9.756;2023-02-28T16:26:36;5.80;1.00
3208;DHT22;1616;52.394;9.756;2023-02-28T16:29:05;5.80;1.00
3208;DHT22;1616;52.394;9.756;2023-02-28T16:31:35;5.70;1.00
3208;DHT22;1616;52.394;9.756;2023-02-28T16:34:02;5.60;1.00
3208;DHT22;1616;52.394;9.756;2023-02-28T16:36:29;5.60;1.00
3208;DHT22;1616;52.394;9.756;2023-02-28T16:38:55;5.60;1.00
3208;DHT22;1616;52.394;9.756;2023-02-28T16:41:24;5.50;1.00
3208;DHT22;1616;52.394;9.756;2023-02-28T16:43:53;5.50;1.00
3208;DHT22;1616;52.394;9.756;2023-02-28T16:46:25;5.40;1.00
3208;DHT22;1616;52.394;9.756;2023-02-28T16:48:52;5.30;1.00
3208;DHT22;1616;52.394;9.756;2023-02-28T16:51:18;5.30;1.00
3208;DHT22;1616;52.394;9.756;2023-02-28T16:53:44;5.20;1.00
3208;DHT22;1616;52.394;9.756;2023-02-28T16:56:19;5.10;1.00
3208;DHT22;1616;52.394;9.756;2023-02-28T16:58:45;5.00;1.00
3208;DHT22;1616;52.394;9.756;2023-02-28T17:01:11;5.00;1.00
3208;DHT22;1616;52.394;9.756;2023-02-28T17:03:37;4.90;1.00
3208;DHT22;1616;52.394;9.756;2023-02-28T17:06:04;4.90;1.00
3208;DHT22;1616;52.394;9.756;2023-02-28T17:08:31;4.80;1.00
3208;DHT22;1616;52.394;9.756;2023-02-28T17:10:58;4.70;1.00
3208;DHT22;1616;52.394;9.756;2023-02-28T17:13:24;4.60;1.00
3208;DHT22;1616;52.394;9.756;2023-02-28T17:15:50;4.50;1.00
3208;DHT22;1616;52.394;9.756;2023-02-28T17:18:18;4.40;1.00
3208;DHT22;1616;52.394;9.756;2023-02-28T17:20:47;4.40;1.00
3208;DHT22;1616;52.394;9.756;2023-02-28T17:23:12;4.40;1.00
3208;DHT22;1616;52.394;9.756;2023-02-28T17:25:38;4.30;1.00
3208;DHT22;1616;52.394;9.756;2023-02-28T17:28:04;4.20;1.00
3208;DHT22;1616;52.394;9.756;2023-02-28T17:30:33;4.20;1.00
3208;DHT22;1616;52.394;9.756;2023-02-28T17:32:59;4.20;1.00
3208;DHT22;1616;52.394;9.756;2023-02-28T17:35:25;4.10;1.00
3208;DHT22;1616;52.394;9.756;2023-02-28T17:37:52;4.10;1.00
3208;DHT22;1616;52.394;9.756;2023-02-28T17:40:22;4.00;1.00
3208;DHT22;1616;52.394;9.756;2023-02-28T17:42:48;4.00;1.00
3208;DHT22;1616;52.394;9.756;2023-02-28T17:45:15;3.90;1.00
3208;DHT22;1616;52.394;9.756;2023-02-28T17:47:43;3.90;1.00
3208;DHT22;1616;52.394;9.756;2023-02-28T17:50:20;3.90;1.00
3208;DHT22;1616;52.394;9.756;2023-02-28T17:52:46;3.80;1.00
3208;DHT22;1616;52.394;9.756;2023-02-28T17:55:12;3.70;1.00
3208;DHT22;1616;52.394;9.756;2023-02-28T17:57:38;3.70;1.00
3208;DHT22;1616;52.394;9.756;2023-02-28T18:00:05;3.60;1.00
3208;DHT22;1616;52.394;9.756;2023-02-28T18:02:32;3.60;1.00
3208;DHT22;1616;52.394;9.756;2023-02-28T18:04:58;3.40;1.00
3208;DHT22;1616;52.394;9.756;2023-02-28T18:07:24;3.50;1.00
3208;DHT22;1616;52.394;9.756;2023-02-28T18:09:50;3.30;1.00
3208;DHT22;1616;52.394;9.756;2023-02-28T18:12:16;3.30;1.00
3208;DHT22;1616;52.394;9.756;2023-02-28T18:14:43;3.30;1.00
3208;DHT22;1616;52.394;9.756;2023-02-28T18:17:11;3.20;1.00
3208;DHT22;1616;52.394;9.756;2023-02-28T18:19:38;3.10;1.00
3208;DHT22;1616;52.394;9.756;2023-02-28T18:22:04;3.20;1.00
3208;DHT22;1616;52.394;9.756;2023-02-28T18:24:32;3.10;1.00
3208;DHT22;1616;52.394;9.756;2023-02-28T18:26:58;3.10;1.00
3208;DHT22;1616;52.394;9.756;2023-02-28T18:29:26;3.10;1.00
3208;DHT22;1616;52.394;9.756;2023-02-28T18:31:53;3.10;1.00
3208;DHT22;1616;52.394;9.756;2023-02-28T18:34:20;3.10;1.00
3208;DHT22;1616;52.394;9.756;2023-02-28T18:36:46;3.00;1.00
3208;DHT22;1616;52.394;9.756;2023-02-28T18:39:14;3.00;1.00
3208;DHT22;1616;52.394;9.756;2023-02-28T18:41:40;3.00;1.00